Time;durP1;ratioP1;P1;durP2;ratioP2;P2;SDS_P1;SDS_P2;PMS_P1;PMS_P2;Temp;Humidity;BMP_temperature;BMP_pressure;BME280_temperature;BME280_humidity;BME280_pressure;Samples;Min_cycle;Max_cycle;Signal;HPM_P1;HPM_P2
2022/06/16 00:00:58;;;;;;;3.67;1.60;;;18.80;59.60;;;;;;4962638;28;20052;-82
2022/06/16 00:03:24;;;;;;;6.60;1.85;;;18.80;59.70;;;;;;4994894;28;20529;-82
2022/06/16 00:05:50;;;;;;;3.88;1.33;;;18.80;59.90;;;;;;4962583;28;20065;-82
2022/06/16 00:08:18;;;;;;;6.28;1.50;;;18.70;59.90;;;;;;4978677;28;20042;-83
2022/06/16 00:13:35;;;;;;;5.00;1.23;;;18.70;60.00;;;;;;4995324;28;20529;-77
2022/06/16 00:16:00;;;;;;;4.00;1.45;;;18.70;60.00;;;;;;4996664;28;20439;-78
2022/06/16 00:18:26;;;;;;;3.58;1.20;;;18.60;59.90;;;;;;4994707;28;20037;-78
2022/06/16 00:20:52;;;;;;;6.82;1.50;;;18.60;60.10;;;;;;4994592;28;20077;-78
2022/06/16 00:23:18;;;;;;;4.18;1.27;;;18.50;60.20;;;;;;4995785;28;20801;-78
2022/06/16 00:25:43;;;;;;;4.80;1.70;;;18.50;60.30;;;;;;4978248;28;20117;-78
2022/06/16 00:28:09;;;;;;;6.57;1.73;;;18.50;60.60;;;;;;4993729;28;20026;-78
2022/06/16 00:30:35;;;;;;;5.60;1.55;;;18.40;60.80;;;;;;5012125;28;20018;-78
2022/06/16 00:33:00;;;;;;;7.65;1.90;;;18.40;60.70;;;;;;5011056;28;20026;-77
2022/06/16 00:35:26;;;;;;;8.15;1.63;;;18.30;60.70;;;;;;4993899;28;20034;-82
2022/06/16 00:37:52;;;;;;;6.75;1.50;;;18.30;60.80;;;;;;5010456;28;20049;-82
2022/06/16 00:40:18;;;;;;;8.52;1.92;;;18.30;61.10;;;;;;4977877;28;20467;-82
2022/06/16 00:42:45;;;;;;;3.53;1.55;;;18.20;61.10;;;;;;5010339;28;20080;-83
2022/06/16 00:45:50;;;;;;;3.60;1.40;;;18.20;61.10;;;;;;4994202;28;20030;-82
2022/06/16 00:48:38;;;;;;;4.93;1.48;;;18.00;61.70;;;;;;4994157;28;20038;-83
2022/06/16 00:51:20;;;;;;;6.80;1.65;;;18.00;61.50;;;;;;4993954;28;20157;-82
2022/06/16 00:53:47;;;;;;;8.02;1.58;;;17.90;61.50;;;;;;5010419;28;20062;-82
2022/06/16 00:56:16;;;;;;;5.00;1.65;;;17.90;61.70;;;;;;4994242;28;20027;-83
2022/06/16 00:58:47;;;;;;;3.90;1.70;;;17.80;62.30;;;;;;4995446;28;20031;-82
2022/06/16 01:01:14;;;;;;;5.20;1.75;;;17.80;62.20;;;;;;4995203;28;20045;-83
2022/06/16 01:06:29;;;;;;;4.68;1.67;;;17.60;62.40;;;;;;4994193;28;20391;-78
2022/06/16 01:09:05;;;;;;;4.95;1.40;;;17.60;62.50;;;;;;4993811;28;20490;-82
2022/06/16 01:14:46;;;;;;;3.72;1.40;;;17.50;62.60;;;;;;4994646;28;20605;-81
2022/06/16 01:17:20;;;;;;;4.97;1.23;;;17.40;62.60;;;;;;4994848;28;20022;-82
2022/06/16 01:20:03;;;;;;;5.95;1.40;;;17.40;62.80;;;;;;5009911;28;20037;-81
2022/06/16 01:23:06;;;;;;;3.30;1.40;;;17.30;62.80;;;;;;4993999;28;20498;-82
2022/06/16 01:26:12;;;;;;;3.45;1.77;;;17.20;62.70;;;;;;4994672;28;20038;-77
2022/06/16 01:28:47;;;;;;;6.35;1.30;;;17.20;63.30;;;;;;4955875;28;20133;-78
2022/06/16 01:31:23;;;;;;;3.92;1.48;;;17.10;63.30;;;;;;5009805;28;20030;-78
2022/06/16 01:34:15;;;;;;;3.10;1.20;;;17.10;64.10;;;;;;4994721;28;20037;-78
2022/06/16 01:36:47;;;;;;;3.75;1.90;;;17.00;63.60;;;;;;4994263;28;20471;-78
2022/06/16 01:39:26;;;;;;;4.28;1.55;;;17.00;63.70;;;;;;4993017;28;20022;-78
2022/06/16 01:42:00;;;;;;;5.63;1.50;;;16.90;63.90;;;;;;4992898;28;20446;-78
2022/06/16 01:44:41;;;;;;;5.13;1.98;;;16.90;63.90;;;;;;4994131;28;20057;-78
2022/06/16 01:47:17;;;;;;;4.70;1.42;;;16.80;63.70;;;;;;4993009;28;20404;-78
2022/06/16 01:49:52;;;;;;;5.53;2.13;;;16.80;63.70;;;;;;4994663;28;20080;-78
2022/06/16 01:52:24;;;;;;;4.63;1.70;;;16.80;63.90;;;;;;5012305;28;20025;-76
2022/06/16 01:55:01;;;;;;;3.95;1.63;;;16.80;63.90;;;;;;5014022;28;20072;-80
2022/06/16 01:57:32;;;;;;;4.82;1.65;;;16.70;64.10;;;;;;5012632;28;20037;-82
2022/06/16 02:00:08;;;;;;;5.18;1.95;;;16.60;64.10;;;;;;5012396;28;20034;-82
2022/06/16 02:02:37;;;;;;;5.70;2.22;;;16.60;64.10;;;;;;5012635;28;20113;-81
2022/06/16 02:05:15;;;;;;;5.00;1.75;;;16.60;64.20;;;;;;5012589;28;20433;-81
2022/06/16 02:07:50;;;;;;;5.40;2.15;;;16.50;64.20;;;;;;5011870;28;20046;-82
2022/06/16 02:10:22;;;;;;;6.50;2.13;;;16.50;64.40;;;;;;5012397;28;20076;-82
2022/06/16 02:12:57;;;;;;;5.65;1.85;;;16.40;64.70;;;;;;5012453;28;20025;-82
2022/06/16 02:15:41;;;;;;;2.97;1.60;;;16.40;65.50;;;;;;5012637;28;20459;-82
2022/06/16 02:18:10;;;;;;;4.97;2.03;;;16.30;65.30;;;;;;5013680;28;20021;-82
2022/06/16 02:21:15;;;;;;;5.30;2.00;;;16.30;65.70;;;;;;5016630;28;20085;-78
2022/06/16 02:23:41;;;;;;;5.45;2.28;;;16.30;65.90;;;;;;5016454;28;20080;-78
2022/06/16 02:26:07;;;;;;;7.95;2.38;;;16.20;66.00;;;;;;4999997;28;20026;-78
2022/06/16 02:28:45;;;;;;;7.15;2.78;;;16.20;66.30;;;;;;5016245;28;20018;-78
2022/06/16 02:31:46;;;;;;;5.32;1.88;;;16.10;66.40;;;;;;5016625;28;20029;-78
2022/06/16 02:34:34;;;;;;;4.57;1.90;;;16.10;66.50;;;;;;5032824;28;20025;-77
2022/06/16 02:37:30;;;;;;;4.88;1.90;;;16.00;66.50;;;;;;5016374;28;20022;-77
2022/06/16 02:40:14;;;;;;;5.32;2.60;;;16.00;67.10;;;;;;5015956;28;20037;-77
2022/06/16 02:42:49;;;;;;;;;;;15.90;66.60;;;;;;5016460;28;20032;-77
2022/06/16 02:45:20;;;;;;;3.63;1.40;;;15.90;66.60;;;;;;5017053;28;19913;-77
2022/06/16 02:47:58;;;;;;;7.32;2.28;;;15.90;66.40;;;;;;5015770;28;20066;-77
2022/06/16 02:50:42;;;;;;;5.95;1.70;;;15.80;66.70;;;;;;5016161;28;20471;-77
2022/06/16 02:53:30;;;;;;;4.72;1.63;;;15.80;66.70;;;;;;5015647;28;20029;-76
2022/06/16 02:56:03;;;;;;;5.95;2.05;;;15.80;66.70;;;;;;5015738;28;20041;-77
2022/06/16 02:58:31;;;;;;;9.55;2.58;;;15.70;66.80;;;;;;5015628;28;20026;-77
2022/06/16 03:00:59;;;;;;;5.30;2.58;;;15.70;66.80;;;;;;5015771;28;20049;-81
2022/06/16 03:03:28;;;;;;;3.95;1.70;;;15.70;66.90;;;;;;5015568;28;20466;-81
2022/06/16 03:05:57;;;;;;;5.15;1.90;;;15.60;67.00;;;;;;5015718;28;20036;-82
2022/06/16 03:08:27;;;;;;;5.00;2.10;;;15.60;67.00;;;;;;5016756;28;20070;-82
2022/06/16 03:10:54;;;;;;;5.35;1.73;;;15.60;67.20;;;;;;5015520;28;20152;-82
2022/06/16 03:13:25;;;;;;;4.97;2.10;;;15.50;67.30;;;;;;5015410;28;20018;-82
2022/06/16 03:15:53;;;;;;;5.18;1.80;;;15.60;67.30;;;;;;5015722;28;20465;-82
2022/06/16 03:18:20;;;;;;;6.75;2.22;;;15.50;67.30;;;;;;5015747;28;20022;-81
2022/06/16 03:20:46;;;;;;;7.35;1.90;;;15.50;67.40;;;;;;5015427;28;20033;-78
2022/06/16 03:23:12;;;;;;;6.40;2.35;;;15.50;67.50;;;;;;5031745;28;20026;-77
2022/06/16 03:25:40;;;;;;;8.13;2.40;;;15.50;67.60;;;;;;4998878;28;20033;-78
2022/06/16 03:28:06;;;;;;;7.25;1.77;;;15.40;67.60;;;;;;4998696;28;20057;-77
2022/06/16 03:30:33;;;;;;;5.22;2.00;;;15.40;67.60;;;;;;5014007;28;20025;-77
2022/06/16 03:32:59;;;;;;;6.43;1.92;;;15.40;67.70;;;;;;4999488;28;20105;-76
2022/06/16 03:35:25;;;;;;;6.85;2.20;;;15.40;67.70;;;;;;5016222;28;20108;-77
2022/06/16 03:37:51;;;;;;;5.90;2.00;;;15.30;67.60;;;;;;5015676;28;20058;-77
2022/06/16 03:40:18;;;;;;;5.07;1.73;;;15.30;67.70;;;;;;5015373;28;20545;-77
2022/06/16 03:42:44;;;;;;;8.13;2.38;;;15.20;67.60;;;;;;4999364;28;20036;-77
2022/06/16 03:45:10;;;;;;;4.22;1.95;;;15.20;67.80;;;;;;4998632;28;20117;-80
2022/06/16 03:47:35;;;;;;;5.47;1.90;;;15.20;67.90;;;;;;5015226;28;20030;-81
2022/06/16 03:50:01;;;;;;;5.70;2.30;;;15.10;67.90;;;;;;5015072;28;20041;-81
2022/06/16 03:52:27;;;;;;;6.07;2.10;;;15.10;68.10;;;;;;5014695;28;20390;-81
2022/06/16 03:54:52;;;;;;;6.28;2.10;;;15.10;68.20;;;;;;4998504;28;20022;-82
2022/06/16 03:57:18;;;;;;;4.60;2.50;;;15.10;68.20;;;;;;5014637;28;20022;-78
2022/06/16 03:59:44;;;;;;;4.63;1.85;;;15.10;68.40;;;;;;4982128;28;20429;-77
2022/06/16 04:02:09;;;;;;;5.80;2.35;;;15.00;68.40;;;;;;5015940;28;20030;-77
2022/06/16 04:04:35;;;;;;;7.72;2.35;;;15.00;68.60;;;;;;4981873;28;20080;-77
2022/06/16 04:07:01;;;;;;;5.68;2.35;;;15.10;68.80;;;;;;5010746;28;20027;-78
2022/06/16 04:09:27;;;;;;;6.70;2.17;;;15.00;68.80;;;;;;5014140;28;20030;-78
2022/06/16 04:11:52;;;;;;;7.35;2.63;;;15.00;68.90;;;;;;4998072;28;20394;-78
2022/06/16 04:14:18;;;;;;;4.25;1.67;;;15.00;68.90;;;;;;4981788;28;20022;-81
2022/06/16 04:16:48;;;;;;;3.65;2.03;;;15.00;68.90;;;;;;4998228;28;20116;-81
2022/06/16 04:19:15;;;;;;;5.60;2.15;;;14.90;69.00;;;;;;5031202;28;20053;-81
2022/06/16 04:21:43;;;;;;;8.43;2.42;;;14.90;69.10;;;;;;5013422;28;20062;-82
2022/06/16 04:24:09;;;;;;;5.72;2.05;;;14.90;70.00;;;;;;4997875;28;20030;-81
2022/06/16 04:26:38;;;;;;;5.28;1.92;;;14.80;69.50;;;;;;5014040;28;20474;-82
2022/06/16 04:29:05;;;;;;;5.00;2.60;;;14.90;69.80;;;;;;5013899;28;20075;-81
2022/06/16 04:31:31;;;;;;;3.50;1.80;;;14.90;70.00;;;;;;4998169;28;20057;-81
2022/06/16 04:33:57;;;;;;;5.93;2.03;;;14.80;70.20;;;;;;5013979;28;20013;-81
2022/06/16 04:36:23;;;;;;;5.72;2.22;;;14.80;70.50;;;;;;5013729;28;20394;-82
2022/06/16 04:38:49;;;;;;;6.10;2.63;;;14.80;70.80;;;;;;5013821;28;20030;-82
2022/06/16 04:41:15;;;;;;;10.48;2.63;;;14.80;71.10;;;;;;5013439;28;20018;-82
2022/06/16 04:43:42;;;;;;;5.88;2.17;;;14.80;71.10;;;;;;5013986;28;20026;-82
2022/06/16 04:46:08;;;;;;;7.10;2.35;;;14.90;71.30;;;;;;4997872;28;20386;-81
2022/06/16 04:48:35;;;;;;;5.70;2.47;;;14.80;71.70;;;;;;5013587;28;20026;-82
2022/06/16 04:51:03;;;;;;;4.57;2.47;;;14.80;71.80;;;;;;5012672;28;20049;-81
2022/06/16 04:53:29;;;;;;;6.82;2.22;;;14.90;71.70;;;;;;5009222;28;20077;-82
2022/06/16 04:55:57;;;;;;;8.07;2.80;;;14.90;71.70;;;;;;4986191;28;20030;-81
2022/06/16 04:58:24;;;;;;;6.35;2.42;;;15.00;71.90;;;;;;4991299;28;20061;-82
2022/06/16 05:00:50;;;;;;;6.95;2.55;;;15.00;71.90;;;;;;5004375;28;20077;-81
2022/06/16 05:03:18;;;;;;;6.40;2.42;;;15.00;72.00;;;;;;5013605;28;20034;-82
2022/06/16 05:05:48;;;;;;;5.40;2.05;;;15.00;72.10;;;;;;5013495;28;20474;-81
2022/06/16 05:08:15;;;;;;;4.85;2.00;;;15.00;72.60;;;;;;4997090;28;20034;-81
2022/06/16 05:10:41;;;;;;;4.68;2.03;;;15.00;72.90;;;;;;4997266;28;20068;-82
2022/06/16 05:13:08;;;;;;;7.15;2.10;;;15.10;73.20;;;;;;5015012;28;20026;-83
2022/06/16 05:15:35;;;;;;;6.93;1.98;;;15.10;73.10;;;;;;5013348;28;20072;-82
2022/06/16 05:18:02;;;;;;;9.13;2.35;;;15.10;72.90;;;;;;5013201;28;20161;-82
2022/06/16 05:20:27;;;;;;;3.58;1.83;;;15.10;73.00;;;;;;5013174;28;20026;-81
2022/06/16 05:22:53;;;;;;;5.15;1.98;;;15.20;73.30;;;;;;4997059;28;20026;-82
2022/06/16 05:25:19;;;;;;;3.22;1.38;;;15.20;73.30;;;;;;5013179;28;20048;-82
2022/06/16 05:27:45;;;;;;;4.28;1.63;;;15.20;73.10;;;;;;4996625;28;20177;-82
2022/06/16 05:30:10;;;;;;;5.00;2.13;;;15.30;73.40;;;;;;5013141;28;20029;-82
2022/06/16 05:32:36;;;;;;;4.13;1.40;;;15.30;73.40;;;;;;4993331;28;20031;-82
2022/06/16 05:35:02;;;;;;;5.53;2.15;;;15.30;73.60;;;;;;4988808;28;20033;-82
2022/06/16 05:37:28;;;;;;;3.65;1.25;;;15.40;73.60;;;;;;4993117;28;20026;-83
2022/06/16 05:39:54;;;;;;;6.13;1.50;;;15.50;73.60;;;;;;4994415;28;20061;-82
2022/06/16 05:42:20;;;;;;;5.85;1.60;;;15.50;73.30;;;;;;5006471;28;20025;-83
2022/06/16 05:44:46;;;;;;;2.40;1.08;;;15.50;73.60;;;;;;5012558;28;20109;-82
2022/06/16 05:47:12;;;;;;;3.50;1.27;;;15.50;73.50;;;;;;4980409;28;20109;-82
2022/06/16 05:49:42;;;;;;;4.90;1.42;;;15.60;73.40;;;;;;4987763;28;20018;-83
2022/06/16 05:52:09;;;;;;;4.47;1.48;;;15.60;73.40;;;;;;4982595;28;20061;-82
2022/06/16 05:54:35;;;;;;;3.05;1.27;;;15.70;73.50;;;;;;5001533;28;20046;-83
2022/06/16 05:57:00;;;;;;;3.08;1.13;;;15.80;73.40;;;;;;4998389;28;20057;-82
2022/06/16 05:59:26;;;;;;;2.22;0.98;;;15.70;73.20;;;;;;4979683;28;20489;-82
2022/06/16 06:01:51;;;;;;;6.07;1.00;;;15.80;73.10;;;;;;5012839;28;20034;-83
2022/06/16 06:04:17;;;;;;;3.83;0.90;;;15.80;72.90;;;;;;5012477;28;20113;-83
2022/06/16 06:06:43;;;;;;;4.43;1.00;;;15.90;72.60;;;;;;4964205;28;20058;-83
2022/06/16 06:17:43;;;;;;;3.17;0.90;;;16.10;72.00;;;;;;4896260;29;20040;-77
2022/06/16 06:20:10;;;;;;;3.08;0.70;;;16.00;71.70;;;;;;4945976;28;20042;-79
2022/06/16 06:22:35;;;;;;;3.72;0.90;;;16.20;71.80;;;;;;4992770;28;20034;-80
2022/06/16 06:25:01;;;;;;;5.45;0.90;;;16.30;71.70;;;;;;4976325;28;20508;-80
2022/06/16 06:27:32;;;;;;;3.47;1.00;;;16.40;71.20;;;;;;4984401;28;20038;-79
2022/06/16 06:29:58;;;;;;;3.40;0.98;;;16.50;71.00;;;;;;4992334;28;20022;-80
2022/06/16 06:32:25;;;;;;;3.45;0.50;;;16.60;70.90;;;;;;5008920;28;20426;-80
2022/06/16 06:34:51;;;;;;;3.75;0.90;;;16.60;70.40;;;;;;4992570;28;20114;-80
2022/06/16 06:37:20;;;;;;;2.00;0.60;;;16.60;70.20;;;;;;5004967;28;20482;-80
2022/06/16 06:39:47;;;;;;;1.90;0.60;;;16.60;69.80;;;;;;4993068;28;20070;-80
2022/06/16 06:42:13;;;;;;;4.85;0.80;;;16.60;69.50;;;;;;4992966;28;20023;-80
2022/06/16 06:44:38;;;;;;;3.17;0.90;;;16.70;69.30;;;;;;4992656;28;20109;-81
2022/06/16 06:47:05;;;;;;;4.60;0.65;;;16.70;69.10;;;;;;4992907;28;20030;-79
2022/06/16 06:49:31;;;;;;;4.65;0.73;;;16.70;69.50;;;;;;4960192;28;20042;-78
2022/06/16 06:51:56;;;;;;;2.13;0.55;;;16.80;68.70;;;;;;4976317;28;20027;-78
2022/06/16 06:54:23;;;;;;;3.67;0.68;;;16.80;68.50;;;;;;4993408;28;20426;-78
2022/06/16 06:56:50;;;;;;;3.08;0.82;;;16.90;68.60;;;;;;5005339;28;20069;-78
2022/06/16 06:59:18;;;;;;;3.15;0.77;;;16.90;68.40;;;;;;4998592;28;20096;-79
2022/06/16 07:01:48;;;;;;;4.28;0.60;;;16.90;67.90;;;;;;4993525;28;20034;-78
2022/06/16 07:04:14;;;;;;;3.17;0.70;;;17.00;67.20;;;;;;4994833;28;20121;-78
2022/06/16 07:06:41;;;;;;;3.13;0.75;;;17.00;66.70;;;;;;4995838;28;20030;-77
2022/06/16 07:09:07;;;;;;;5.28;0.80;;;17.10;66.10;;;;;;4995901;28;20034;-77
2022/06/16 07:11:33;;;;;;;2.47;0.63;;;17.20;66.00;;;;;;4996093;28;20019;-78
2022/06/16 07:13:58;;;;;;;2.38;0.50;;;17.20;65.60;;;;;;4979637;28;20033;-78
2022/06/16 07:16:24;;;;;;;2.38;0.50;;;17.30;65.50;;;;;;4995930;28;20037;-77
2022/06/16 07:18:50;;;;;;;4.95;0.77;;;17.30;64.80;;;;;;4995586;28;20034;-78
2022/06/16 07:21:16;;;;;;;2.63;0.50;;;17.40;64.70;;;;;;5006617;28;20038;-78
2022/06/16 07:23:42;;;;;;;3.15;0.57;;;17.40;64.20;;;;;;4999255;28;20367;-78
2022/06/16 07:26:10;;;;;;;3.38;0.50;;;17.40;63.90;;;;;;5015207;28;20033;-77
2022/06/16 07:28:35;;;;;;;3.97;0.40;;;17.50;63.40;;;;;;5007580;28;20545;-77
2022/06/16 07:31:01;;;;;;;3.67;0.68;;;17.50;63.20;;;;;;5007739;28;20026;-77
2022/06/16 07:33:27;;;;;;;2.97;0.40;;;17.60;62.30;;;;;;5013071;28;20050;-77
2022/06/16 07:35:55;;;;;;;2.20;0.50;;;17.70;62.60;;;;;;4991643;28;20027;-80
2022/06/16 07:38:21;;;;;;;4.57;0.73;;;17.80;62.40;;;;;;5014607;28;20030;-76
2022/06/16 07:40:47;;;;;;;3.33;0.60;;;17.80;62.20;;;;;;5014939;28;20022;-80
2022/06/16 07:43:13;;;;;;;1.98;0.50;;;17.90;62.20;;;;;;5014421;28;20018;-79
2022/06/16 07:45:42;;;;;;;1.60;0.68;;;17.90;62.20;;;;;;5010258;28;20026;-79
2022/06/16 07:48:08;;;;;;;2.50;0.50;;;18.00;61.70;;;;;;4997674;28;20036;-79
2022/06/16 07:50:36;;;;;;;3.78;0.55;;;18.10;61.50;;;;;;4994980;28;20161;-78
2022/06/16 07:53:04;;;;;;;3.70;0.52;;;18.10;61.50;;;;;;4995192;28;20050;-78
2022/06/16 07:55:31;;;;;;;2.03;0.50;;;18.20;61.50;;;;;;4994979;28;20022;-78
2022/06/16 07:57:56;;;;;;;2.95;0.50;;;18.30;61.50;;;;;;4995321;28;20042;-79
2022/06/16 08:00:26;;;;;;;2.47;0.65;;;18.30;61.10;;;;;;4995952;28;20042;-79
2022/06/16 08:02:53;;;;;;;4.35;0.50;;;18.40;61.20;;;;;;4995063;28;20066;-79
2022/06/16 08:05:19;;;;;;;1.52;0.40;;;18.40;61.30;;;;;;4994982;28;20042;-80
2022/06/16 08:07:45;;;;;;;2.28;0.60;;;18.50;61.10;;;;;;4996246;28;20387;-81
2022/06/16 08:10:16;;;;;;;2.67;0.57;;;18.60;61.10;;;;;;4996532;28;20030;-77
2022/06/16 08:12:42;;;;;;;3.45;0.50;;;18.60;60.90;;;;;;5006698;28;20490;-79
2022/06/16 08:15:10;;;;;;;4.70;0.60;;;18.70;60.90;;;;;;4997521;28;20060;-79
2022/06/16 08:17:40;;;;;;;2.80;0.60;;;18.80;60.70;;;;;;5014376;28;20470;-78
2022/06/16 08:20:06;;;;;;;2.75;0.52;;;18.80;60.60;;;;;;5014083;28;20030;-77
2022/06/16 08:22:33;;;;;;;3.80;0.75;;;18.90;60.60;;;;;;5014312;28;20028;-76
2022/06/16 08:24:59;;;;;;;6.80;1.23;;;18.90;60.60;;;;;;4998141;28;20377;-79
2022/06/16 08:27:33;;;;;;;2.28;0.50;;;19.00;60.80;;;;;;5014284;28;20105;-77
2022/06/16 08:29:59;;;;;;;4.95;1.00;;;19.10;60.80;;;;;;5015712;28;20030;-77
2022/06/16 08:32:25;;;;;;;4.70;0.70;;;19.20;60.80;;;;;;5013883;28;20046;-77
2022/06/16 08:34:51;;;;;;;4.38;0.75;;;19.30;60.50;;;;;;5014170;28;20026;-77
2022/06/16 08:37:19;;;;;;;4.65;0.70;;;19.30;60.40;;;;;;5014062;28;20445;-77
2022/06/16 08:39:44;;;;;;;6.00;0.70;;;19.40;60.40;;;;;;5014479;28;20044;-77
2022/06/16 08:42:20;;;;;;;2.42;0.82;;;19.50;60.30;;;;;;4998019;28;20482;-78
2022/06/16 08:44:52;;;;;;;4.38;0.80;;;19.50;60.20;;;;;;5014950;28;20053;-78
2022/06/16 08:47:21;;;;;;;6.57;0.98;;;19.60;60.10;;;;;;5014227;28;20026;-81
2022/06/16 08:50:06;;;;;;;3.35;0.70;;;19.70;59.80;;;;;;5014347;28;20033;-78
2022/06/16 08:53:00;;;;;;;2.05;0.52;;;19.70;59.70;;;;;;5014872;28;20377;-79
2022/06/16 08:55:33;;;;;;;2.97;0.70;;;19.80;59.60;;;;;;5014967;28;20466;-81
2022/06/16 08:58:08;;;;;;;2.58;0.60;;;19.80;59.50;;;;;;5001289;28;20054;-78
2022/06/16 09:00:53;;;;;;;3.33;0.77;;;19.90;59.30;;;;;;4997156;28;20124;-81
2022/06/16 09:03:25;;;;;;;4.35;1.00;;;20.00;59.20;;;;;;4993184;28;20077;-81
2022/06/16 09:06:26;;;;;;;2.58;0.68;;;20.10;59.10;;;;;;4994983;28;20069;-82
2022/06/16 09:09:00;;;;;;;3.13;0.90;;;20.20;59.00;;;;;;4994880;28;20497;-83
2022/06/16 09:11:26;;;;;;;3.03;0.60;;;20.30;58.80;;;;;;5010531;28;20037;-80
2022/06/16 09:17:48;;;;;;;3.33;1.00;;;20.50;58.00;;;;;;4995522;28;20070;-81
2022/06/16 09:20:20;;;;;;;5.03;0.90;;;20.60;57.70;;;;;;4993624;28;20085;-82
2022/06/16 09:23:40;;;;;;;2.67;0.70;;;20.60;57.40;;;;;;4994755;28;20110;-81
2022/06/16 09:26:11;;;;;;;3.28;0.75;;;20.70;57.00;;;;;;4918758;29;20051;-81
2022/06/16 09:28:54;;;;;;;2.95;0.88;;;20.80;57.10;;;;;;4991940;28;20042;-81
2022/06/16 09:31:35;;;;;;;4.57;0.90;;;20.90;57.10;;;;;;4994865;28;20034;-79
2022/06/16 09:34:25;;;;;;;2.72;0.80;;;21.00;57.00;;;;;;4994571;28;20077;-78
2022/06/16 09:36:57;;;;;;;1.92;0.70;;;21.10;56.90;;;;;;4992551;28;20041;-80
2022/06/16 09:39:35;;;;;;;1.88;0.60;;;21.20;57.00;;;;;;4994515;28;20485;-76
2022/06/16 09:45:01;;;;;;;4.68;0.88;;;21.40;56.80;;;;;;4994615;28;20114;-79
2022/06/16 09:47:33;;;;;;;3.45;0.70;;;21.50;56.40;;;;;;4994237;28;20549;-76
2022/06/16 09:50:07;;;;;;;3.83;0.85;;;21.60;56.10;;;;;;4994166;28;20034;-77
2022/06/16 09:52:38;;;;;;;2.10;0.60;;;21.60;55.60;;;;;;4994293;28;20360;-77
2022/06/16 09:55:11;;;;;;;13.05;1.67;;;21.70;55.30;;;;;;4994280;28;20073;-76
2022/06/16 09:57:48;;;;;;;4.50;0.70;;;21.70;55.10;;;;;;4992785;28;20078;-78
2022/06/16 10:00:19;;;;;;;2.95;0.80;;;21.80;55.10;;;;;;4992843;28;20052;-77
2022/06/16 10:03:00;;;;;;;2.85;0.80;;;21.90;55.00;;;;;;4994193;28;20030;-80
2022/06/16 10:05:40;;;;;;;2.53;0.65;;;22.00;55.20;;;;;;4994352;28;20072;-81
2022/06/16 10:08:21;;;;;;;3.55;0.88;;;22.10;55.20;;;;;;4994303;28;20048;-78
2022/06/16 10:10:55;;;;;;;2.40;0.77;;;22.20;54.90;;;;;;4992718;28;20356;-78
2022/06/16 10:13:53;;;;;;;5.30;1.45;;;22.30;54.60;;;;;;4995181;28;20042;-78
2022/06/16 10:16:29;;;;;;;4.22;0.80;;;22.30;54.10;;;;;;4991379;28;20031;-78
2022/06/16 10:18:55;;;;;;;3.88;0.88;;;22.40;54.00;;;;;;4994162;28;20470;-78
2022/06/16 10:21:21;;;;;;;6.35;1.20;;;22.50;53.80;;;;;;4992804;28;20029;-79
2022/06/16 10:23:56;;;;;;;2.83;0.70;;;22.60;54.00;;;;;;4992642;28;20429;-78
2022/06/16 10:26:22;;;;;;;4.07;0.90;;;22.60;53.80;;;;;;4993785;28;20026;-81
2022/06/16 10:28:50;;;;;;;6.65;1.20;;;22.70;53.50;;;;;;4992481;28;20023;-83
2022/06/16 10:31:39;;;;;;;5.78;0.90;;;22.80;53.10;;;;;;4993989;28;20026;-82
2022/06/16 10:34:24;;;;;;;4.35;0.82;;;23.00;52.80;;;;;;4993127;28;20030;-81
2022/06/16 10:37:01;;;;;;;6.40;0.90;;;23.10;52.50;;;;;;4976252;28;20018;-79
2022/06/16 10:39:43;;;;;;;4.22;0.90;;;23.30;52.10;;;;;;4995669;28;20018;-83
2022/06/16 10:42:26;;;;;;;2.78;0.82;;;23.50;51.90;;;;;;5016558;28;20026;-85
2022/06/16 10:45:21;;;;;;;4.47;1.17;;;23.80;51.50;;;;;;5017007;28;20030;-86
2022/06/16 10:47:51;;;;;;;3.40;0.98;;;24.10;51.20;;;;;;5015895;28;20053;-83
2022/06/16 10:50:36;;;;;;;4.68;0.82;;;24.40;50.90;;;;;;5015748;28;20026;-82
2022/06/16 10:53:10;;;;;;;2.05;0.90;;;24.80;50.20;;;;;;4996298;28;20402;-80
2022/06/16 10:55:42;;;;;;;6.43;0.88;;;25.20;49.90;;;;;;5004439;28;20499;-73
2022/06/16 10:58:16;;;;;;;6.30;0.90;;;25.60;49.50;;;;;;5016391;28;20026;-75
2022/06/16 11:00:42;;;;;;;2.95;0.70;;;26.10;49.00;;;;;;5016799;28;20046;-76
2022/06/16 11:03:15;;;;;;;2.97;0.90;;;26.60;49.30;;;;;;5015614;28;20028;-75
2022/06/16 11:05:50;;;;;;;;;;;27.10;48.80;;;;;;5016936;28;20026;-79
2022/06/16 11:08:16;;;;;;;3.42;0.63;;;27.80;49.00;;;;;;5016388;28;20007;-78
2022/06/16 11:10:52;;;;;;;2.03;0.70;;;28.40;49.30;;;;;;5016972;28;20504;-84
2022/06/16 11:13:26;;;;;;;3.15;0.70;;;29.10;47.50;;;;;;5015755;28;20049;-81
2022/06/16 11:15:52;;;;;;;3.25;0.57;;;29.60;46.40;;;;;;5015777;28;20028;-81
2022/06/16 11:18:24;;;;;;;1.95;0.70;;;30.20;45.80;;;;;;4998707;28;20072;-77
2022/06/16 11:20:56;;;;;;;1.88;0.50;;;30.80;44.70;;;;;;5015987;28;20021;-81
2022/06/16 11:23:21;;;;;;;3.38;0.80;;;31.30;44.00;;;;;;5017047;28;20026;-85
2022/06/16 11:25:52;;;;;;;2.78;0.57;;;31.70;43.00;;;;;;5015766;28;20026;-83
2022/06/16 11:28:22;;;;;;;3.58;0.65;;;32.20;42.20;;;;;;5016805;28;20033;-81
2022/06/16 11:30:47;;;;;;;2.55;0.70;;;32.80;41.60;;;;;;5016237;28;20014;-82
2022/06/16 11:36:39;;;;;;;4.60;0.82;;;33.90;40.10;;;;;;4997785;28;20152;-80
2022/06/16 11:39:37;;;;;;;1.80;0.50;;;34.40;39.00;;;;;;5000715;28;20029;-82
2022/06/16 11:42:03;;;;;;;1.42;0.60;;;34.50;39.00;;;;;;4996781;28;20399;-82
2022/06/16 11:44:29;;;;;;;1.90;0.52;;;34.40;39.20;;;;;;5010950;28;20037;-80
2022/06/16 11:47:01;;;;;;;3.75;0.70;;;34.30;39.00;;;;;;5016229;28;20367;-82
2022/06/16 11:49:54;;;;;;;2.50;0.77;;;34.10;38.20;;;;;;5015949;28;20052;-80
2022/06/16 11:52:41;;;;;;;3.30;0.75;;;33.90;38.00;;;;;;5002549;28;20077;-81
2022/06/16 11:55:38;;;;;;;2.13;0.55;;;33.80;37.80;;;;;;5016224;28;20050;-81
2022/06/16 11:58:27;;;;;;;2.03;0.65;;;33.70;37.40;;;;;;5014539;28;20124;-84
2022/06/16 12:01:18;;;;;;;3.90;0.77;;;33.60;37.10;;;;;;5014762;28;20505;-85
2022/06/16 12:03:59;;;;;;;1.73;0.50;;;33.50;37.20;;;;;;5019562;28;20053;-87
2022/06/16 12:07:12;;;;;;;2.65;0.73;;;33.50;37.50;;;;;;5020454;28;20064;-87
2022/06/16 12:09:59;;;;;;;1.40;0.50;;;33.40;37.50;;;;;;4921206;29;20032;-87
2022/06/16 12:12:35;;;;;;;2.63;0.70;;;33.40;37.80;;;;;;5025703;28;20034;-86
2022/06/16 12:15:07;;;;;;;2.78;0.50;;;33.40;37.70;;;;;;5018528;28;20029;-87
2022/06/16 12:18:18;;;;;;;2.15;0.68;;;33.40;37.70;;;;;;5015962;28;20064;-86
2022/06/16 12:21:02;;;;;;;2.95;0.68;;;33.50;37.40;;;;;;5016350;28;20038;-83
2022/06/16 12:24:22;;;;;;;2.30;0.60;;;33.50;37.40;;;;;;5012038;28;20025;-83
2022/06/16 12:27:22;;;;;;;3.50;0.70;;;33.50;37.30;;;;;;4992223;28;20041;-82
2022/06/16 12:30:18;;;;;;;1.98;0.50;;;33.20;37.30;;;;;;5009837;28;20045;-83
2022/06/16 12:32:55;;;;;;;10.05;0.82;;;33.00;37.60;;;;;;5014461;28;20030;-87
2022/06/16 12:35:49;;;;;;;3.40;0.70;;;32.80;37.80;;;;;;5031151;28;20112;-82
2022/06/16 12:38:32;;;;;;;1.98;0.68;;;32.60;37.60;;;;;;4989933;28;20045;-84
2022/06/16 12:41:15;;;;;;;1.10;0.43;;;32.50;37.70;;;;;;4995553;28;20057;-83
2022/06/16 12:43:57;;;;;;;;;;;32.40;37.60;;;;;;4995893;28;20792;-84
2022/06/16 12:46:38;;;;;;;1.48;0.45;;;32.30;37.70;;;;;;4995502;28;19906;-80
2022/06/16 12:49:13;;;;;;;1.65;0.47;;;32.40;38.00;;;;;;4996202;28;20038;-83
2022/06/16 12:51:45;;;;;;;1.98;0.50;;;32.60;38.00;;;;;;4999551;28;20017;-81
2022/06/16 12:54:20;;;;;;;2.67;0.40;;;32.80;37.90;;;;;;4997556;28;20098;-80
2022/06/16 12:56:58;;;;;;;1.67;0.52;;;33.00;37.60;;;;;;4994986;28;20501;-78
2022/06/16 12:59:38;;;;;;;2.97;0.70;;;33.10;37.30;;;;;;4995802;28;20026;-80
2022/06/16 13:02:07;;;;;;;3.67;0.50;;;33.20;37.10;;;;;;4994670;28;20026;-78
2022/06/16 13:04:34;;;;;;;2.67;0.60;;;33.40;37.20;;;;;;4994602;28;20022;-80
2022/06/16 13:07:12;;;;;;;4.20;0.90;;;33.50;37.20;;;;;;4996473;28;20030;-79
2022/06/16 13:09:39;;;;;;;1.58;0.45;;;33.70;37.00;;;;;;4993522;28;20398;-82
2022/06/16 13:12:25;;;;;;;4.07;0.50;;;33.80;37.30;;;;;;4994250;28;20033;-77
2022/06/16 13:14:57;;;;;;;1.98;0.68;;;33.80;38.10;;;;;;4995219;28;20033;-78
2022/06/16 13:17:27;;;;;;;1.58;0.50;;;34.00;37.40;;;;;;4994794;28;20022;-76
2022/06/16 13:20:00;;;;;;;3.97;0.55;;;34.10;36.90;;;;;;4993520;28;20109;-77
2022/06/16 13:22:40;;;;;;;2.25;0.50;;;34.10;36.40;;;;;;4993488;28;20026;-76
2022/06/16 13:25:32;;;;;;;1.77;0.60;;;34.00;36.30;;;;;;5012953;28;20068;-78
2022/06/16 13:27:58;;;;;;;1.20;0.50;;;34.00;36.40;;;;;;5012354;28;20040;-79
2022/06/16 13:30:30;;;;;;;2.50;0.68;;;33.90;36.20;;;;;;5007285;28;20018;-74
2022/06/16 13:33:07;;;;;;;2.42;0.60;;;33.90;36.20;;;;;;5011475;28;20072;-74
2022/06/16 13:35:39;;;;;;;2.38;0.52;;;33.80;36.10;;;;;;5013059;28;20056;-76
2022/06/16 13:38:05;;;;;;;5.13;0.55;;;33.90;36.20;;;;;;5012935;28;20038;-79
2022/06/16 13:40:33;;;;;;;3.55;0.60;;;34.00;36.30;;;;;;5014435;28;20025;-78
2022/06/16 13:42:58;;;;;;;2.17;0.52;;;34.20;36.20;;;;;;5014403;28;20057;-78